createdAt,value
2022-12-05T00:04:58.262Z,10.83
2022-12-05T00:11:00.194Z,9.23
2022-12-05T00:17:05.213Z,10.70
2022-12-05T00:23:23.086Z,10.37
2022-12-05T00:29:27.759Z,10.37
2022-12-05T00:35:29.682Z,10.20
2022-12-05T00:41:32.029Z,9.73
2022-12-05T00:47:37.288Z,11.67
2022-12-05T00:53:53.790Z,11.10
2022-12-05T00:59:59.916Z,10.47
2022-12-05T01:06:08.225Z,10.17
2022-12-05T01:12:10.263Z,11.27
2022-12-05T01:18:12.196Z,10.77
2022-12-05T01:24:15.243Z,9.57
2022-12-05T01:30:17.193Z,9.17
2022-12-05T01:36:32.268Z,8.97
2022-12-05T01:42:34.530Z,10.70
2022-12-05T01:48:36.785Z,9.33
2022-12-05T01:54:39.124Z,8.57
2022-12-05T02:00:41.650Z,8.63
2022-12-05T02:06:49.323Z,8.13
2022-12-05T02:12:52.469Z,9.60
2022-12-05T02:19:23.111Z,7.87
2022-12-05T02:25:54.489Z,8.27
2022-12-05T02:32:15.702Z,7.87
2022-12-05T02:38:57.688Z,9.17
2022-12-05T02:45:14.068Z,8.60
2022-12-05T02:51:21.375Z,8.33
2022-12-05T02:57:24.708Z,7.97
2022-12-05T03:03:27.326Z,8.87
2022-12-05T03:09:47.239Z,8.97
2022-12-05T03:15:54.721Z,8.30
2022-12-05T03:21:58.619Z,7.73
2022-12-05T03:28:26.958Z,7.77
2022-12-05T03:34:36.491Z,7.63
2022-12-05T03:41:15.630Z,7.40
2022-12-05T03:47:58.139Z,7.20
2022-12-05T03:54:29.921Z,7.20
2022-12-05T04:00:38.397Z,7.83
2022-12-05T04:06:45.133Z,7.77
2022-12-05T04:12:53.750Z,7.40
2022-12-05T04:19:59.833Z,7.50
2022-12-05T04:26:43.100Z,8.13
2022-12-05T04:33:19.745Z,7.97
2022-12-05T04:39:37.284Z,8.47
2022-12-05T04:45:41.482Z,7.57
2022-12-05T04:51:45.005Z,10.70
2022-12-05T04:58:22.287Z,9.03
2022-12-05T05:05:01.471Z,8.70
2022-12-05T05:11:36.337Z,8.20
2022-12-05T05:17:38.293Z,9.70
2022-12-05T05:23:40.185Z,9.20
2022-12-05T05:29:42.222Z,9.57
2022-12-05T05:35:44.179Z,9.00
2022-12-05T05:41:46.156Z,8.57
2022-12-05T05:47:49.926Z,9.77
2022-12-05T06:00:10.182Z,8.00
2022-12-05T06:06:15.286Z,7.63
2022-12-05T06:12:20.514Z,11.47
2022-12-05T06:18:22.466Z,7.67
2022-12-05T06:24:33.850Z,7.50
2022-12-05T06:30:38.107Z,7.43
2022-12-05T06:36:40.078Z,8.30
2022-12-05T06:42:42.052Z,8.87
2022-12-05T06:48:47.127Z,7.67
2022-12-05T06:54:49.062Z,8.87
2022-12-05T07:01:09.872Z,8.83
2022-12-05T07:07:13.208Z,10.10
2022-12-05T07:13:15.906Z,10.00
2022-12-05T07:19:17.901Z,9.30
2022-12-05T07:25:22.451Z,7.40
2022-12-05T07:31:36.989Z,8.27
2022-12-05T07:37:39.061Z,9.03
2022-12-05T07:43:55.439Z,8.70
2022-12-05T07:49:57.832Z,9.37
2022-12-05T07:56:02.461Z,13.00
2022-12-05T08:02:14.036Z,9.07
2022-12-05T08:08:16.109Z,6.30
2022-12-05T08:14:18.116Z,5.23
2022-12-05T08:20:20.061Z,9.03
2022-12-05T08:26:33.184Z,10.60
2022-12-05T08:32:35.722Z,12.10
2022-12-05T08:38:59.084Z,8.00
2022-12-05T08:45:06.889Z,5.53
2022-12-05T08:51:14.928Z,5.10
2022-12-05T08:57:16.828Z,4.40
2022-12-05T09:03:18.938Z,4.30
2022-12-05T09:09:20.985Z,3.83
2022-12-05T09:15:28.594Z,3.70
2022-12-05T09:21:34.006Z,3.63
2022-12-05T09:27:35.980Z,3.00
2022-12-05T09:33:41.552Z,3.20
2022-12-05T09:39:44.632Z,3.37
2022-12-05T09:46:14.970Z,3.57
2022-12-05T09:52:30.738Z,3.07
2022-12-05T09:58:56.691Z,3.10
2022-12-05T10:05:18.158Z,3.50
2022-12-05T10:11:50.005Z,5.60
2022-12-05T10:24:53.616Z,5.50
2022-12-05T10:31:00.541Z,5.43
2022-12-05T10:37:17.708Z,5.63
2022-12-05T10:43:30.152Z,6.07
2022-12-05T10:49:34.287Z,5.60
2022-12-05T10:56:28.319Z,4.50
2022-12-05T11:02:27.916Z,5.53
2022-12-05T11:09:02.930Z,5.83
2022-12-05T11:15:25.286Z,6.70
2022-12-05T11:21:27.324Z,7.50
2022-12-05T11:27:35.874Z,7.20
2022-12-05T11:33:38.774Z,6.53
2022-12-05T11:39:43.780Z,6.63
2022-12-05T11:46:16.566Z,6.80
2022-12-05T11:53:01.848Z,6.83
2022-12-05T11:59:53.562Z,6.70
2022-12-05T12:06:33.030Z,7.50
2022-12-05T12:12:52.808Z,5.30
2022-12-05T12:19:22.429Z,8.80
2022-12-05T12:25:42.951Z,10.43
2022-12-05T12:32:21.166Z,9.73
2022-12-05T12:45:47.965Z,10.20
2022-12-05T12:52:01.666Z,11.10
2022-12-05T12:58:12.743Z,11.07
2022-12-05T13:04:34.428Z,9.70
2022-12-05T13:10:42.725Z,10.27
2022-12-05T13:16:50.806Z,9.73
2022-12-05T13:22:53.872Z,10.00
2022-12-05T13:29:02.682Z,10.40
2022-12-05T13:35:09.943Z,10.93
2022-12-05T13:41:31.039Z,10.70
2022-12-05T13:48:00.854Z,10.10
2022-12-05T13:54:27.356Z,10.70
2022-12-05T14:00:47.817Z,11.47
2022-12-05T14:06:52.724Z,11.57
2022-12-05T14:13:21.343Z,10.60
2022-12-05T14:19:52.131Z,10.83
2022-12-05T14:26:38.732Z,11.73
2022-12-05T14:32:42.624Z,10.63
2022-12-05T14:38:44.911Z,10.80
2022-12-05T14:44:52.891Z,8.90
2022-12-05T14:50:57.196Z,9.20
2022-12-05T14:57:13.461Z,8.80
2022-12-05T15:03:28.858Z,7.13
2022-12-05T15:09:52.513Z,8.13
2022-12-05T15:16:14.996Z,8.10
2022-12-05T15:22:20.180Z,9.07
2022-12-05T15:28:22.122Z,8.83
2022-12-05T15:34:53.198Z,9.20
2022-12-05T15:40:55.492Z,10.50
2022-12-05T15:46:57.753Z,11.47
2022-12-05T15:59:54.698Z,9.67
2022-12-05T16:06:04.786Z,9.57
2022-12-05T16:12:42.824Z,10.90
2022-12-05T16:18:58.561Z,10.27
2022-12-05T16:25:04.711Z,10.20
2022-12-05T16:31:17.462Z,10.60
2022-12-05T16:37:26.895Z,10.83
2022-12-05T16:43:38.826Z,10.03
2022-12-05T16:49:46.058Z,10.50
2022-12-05T16:55:50.508Z,10.87
2022-12-05T17:01:52.588Z,10.77
2022-12-05T17:07:55.048Z,10.70
2022-12-05T17:13:58.353Z,9.50
2022-12-05T17:20:00.283Z,9.70
2022-12-05T17:26:02.339Z,8.83
2022-12-05T17:32:05.170Z,9.13
2022-12-05T17:38:18.898Z,8.70
2022-12-05T17:44:21.715Z,9.53
2022-12-05T17:50:37.756Z,9.43
2022-12-05T17:56:39.669Z,8.70
2022-12-05T18:02:55.087Z,10.40
2022-12-05T18:08:58.532Z,9.30
2022-12-05T18:15:00.914Z,10.50
2022-12-05T18:21:09.129Z,10.53
2022-12-05T18:27:12.356Z,8.80
2022-12-05T18:33:17.194Z,15.03
2022-12-05T18:39:19.648Z,10.87
2022-12-05T18:45:21.604Z,10.00
2022-12-05T18:51:24.265Z,12.03
2022-12-05T18:57:27.252Z,12.07
2022-12-05T19:03:29.169Z,11.00
2022-12-05T19:09:32.346Z,12.27
2022-12-05T19:15:34.281Z,11.90
2022-12-05T19:21:37.336Z,11.83
2022-12-05T19:27:39.297Z,12.30
2022-12-05T19:33:44.952Z,12.07
2022-12-05T19:39:47.408Z,11.20
2022-12-05T19:45:51.963Z,12.00
2022-12-05T19:51:53.962Z,12.00
2022-12-05T19:57:55.957Z,12.37
2022-12-05T20:04:07.203Z,11.80
2022-12-05T20:10:13.107Z,12.30
2022-12-05T20:16:18.657Z,13.83
2022-12-05T20:22:20.891Z,13.73
2022-12-05T20:28:22.955Z,13.27
2022-12-05T20:34:25.028Z,11.93
2022-12-05T20:40:30.090Z,12.57
2022-12-05T20:46:32.825Z,12.27
2022-12-05T20:52:34.821Z,13.10
2022-12-05T20:58:37.434Z,10.53
2022-12-05T21:04:41.905Z,10.40
2022-12-05T21:10:50.169Z,9.83
2022-12-05T21:16:55.750Z,10.47
2022-12-05T21:22:57.709Z,10.47
2022-12-05T21:29:01.114Z,9.80
2022-12-05T21:35:03.435Z,9.07
2022-12-05T21:41:06.512Z,8.73
2022-12-05T21:47:11.170Z,9.73
2022-12-05T21:53:16.131Z,9.17
2022-12-05T21:59:29.162Z,9.37
2022-12-05T22:05:31.640Z,8.00
2022-12-05T22:11:45.500Z,8.83
2022-12-05T22:17:50.397Z,8.07
2022-12-05T22:23:52.315Z,9.03
2022-12-05T22:29:57.076Z,8.27
2022-12-05T22:36:00.859Z,8.30
2022-12-05T22:42:12.022Z,8.50
2022-12-05T22:48:14.211Z,7.63
2022-12-05T23:00:32.047Z,8.93
2022-12-05T23:06:35.821Z,7.80
2022-12-05T23:12:37.809Z,8.87
2022-12-05T23:18:48.516Z,8.37
2022-12-05T23:24:50.418Z,10.00
2022-12-05T23:30:52.421Z,9.70
2022-12-05T23:36:54.363Z,10.23
2022-12-05T23:43:03.170Z,9.93
2022-12-05T23:49:05.201Z,9.63
2022-12-05T23:55:07.652Z,9.47
